sensor_id;sensor_type;location;lat;lon;timestamp;P1;durP1;ratioP1;P2;durP2;ratioP2
23266;SDS011;11802;53.160;8.214;2022-08-19T00:00:27;25.98;;;14.20;;
23266;SDS011;11802;53.160;8.214;2022-08-19T00:02:53;22.73;;;14.70;;
23266;SDS011;11802;53.160;8.214;2022-08-19T00:05:19;22.27;;;13.40;;
23266;SDS011;11802;53.160;8.214;2022-08-19T00:07:46;22.73;;;13.68;;
23266;SDS011;11802;53.160;8.214;2022-08-19T00:10:13;21.52;;;13.70;;
23266;SDS011;11802;53.160;8.214;2022-08-19T00:12:39;18.35;;;12.93;;
23266;SDS011;11802;53.160;8.214;2022-08-19T00:15:06;20.00;;;14.02;;
23266;SDS011;11802;53.160;8.214;2022-08-19T00:17:38;19.88;;;12.52;;
23266;SDS011;11802;53.160;8.214;2022-08-19T00:20:04;18.38;;;13.48;;
23266;SDS011;11802;53.160;8.214;2022-08-19T00:22:31;21.15;;;12.85;;
23266;SDS011;11802;53.160;8.214;2022-08-19T00:24:58;15.43;;;11.25;;
23266;SDS011;11802;53.160;8.214;2022-08-19T00:27:23;15.98;;;11.93;;
23266;SDS011;11802;53.160;8.214;2022-08-19T00:29:49;20.55;;;12.82;;
23266;SDS011;11802;53.160;8.214;2022-08-19T00:32:15;18.52;;;12.07;;
23266;SDS011;11802;53.160;8.214;2022-08-19T00:34:41;20.55;;;13.18;;
23266;SDS011;11802;53.160;8.214;2022-08-19T00:37:06;21.33;;;12.55;;
23266;SDS011;11802;53.160;8.214;2022-08-19T00:39:32;19.45;;;12.50;;
23266;SDS011;11802;53.160;8.214;2022-08-19T00:41:58;21.38;;;13.13;;
23266;SDS011;11802;53.160;8.214;2022-08-19T00:44:24;26.48;;;15.27;;
23266;SDS011;11802;53.160;8.214;2022-08-19T00:46:52;29.15;;;15.55;;
23266;SDS011;11802;53.160;8.214;2022-08-19T00:49:20;27.23;;;15.88;;
23266;SDS011;11802;53.160;8.214;2022-08-19T00:51:51;31.40;;;16.98;;
23266;SDS011;11802;53.160;8.214;2022-08-19T00:54:20;58.22;;;27.65;;
23266;SDS011;11802;53.160;8.214;2022-08-19T00:56:47;57.85;;;29.85;;
23266;SDS011;11802;53.160;8.214;2022-08-19T00:59:15;71.22;;;32.78;;
23266;SDS011;11802;53.160;8.214;2022-08-19T01:01:42;86.93;;;38.97;;
23266;SDS011;11802;53.160;8.214;2022-08-19T01:04:10;110.28;;;45.05;;
23266;SDS011;11802;53.160;8.214;2022-08-19T01:06:35;377.58;;;132.98;;
23266;SDS011;11802;53.160;8.214;2022-08-19T01:09:05;567.55;;;206.13;;
23266;SDS011;11802;53.160;8.214;2022-08-19T01:11:31;605.72;;;218.75;;
23266;SDS011;11802;53.160;8.214;2022-08-19T01:14:01;721.13;;;276.55;;
23266;SDS011;11802;53.160;8.214;2022-08-19T01:16:33;633.60;;;239.02;;
23266;SDS011;11802;53.160;8.214;2022-08-19T01:19:13;446.65;;;151.75;;
23266;SDS011;11802;53.160;8.214;2022-08-19T01:21:47;312.50;;;108.22;;
23266;SDS011;11802;53.160;8.214;2022-08-19T01:24:35;221.13;;;76.13;;
23266;SDS011;11802;53.160;8.214;2022-08-19T01:27:03;239.05;;;83.00;;
23266;SDS011;11802;53.160;8.214;2022-08-19T01:29:31;186.25;;;65.25;;
23266;SDS011;11802;53.160;8.214;2022-08-19T01:31:57;153.80;;;53.42;;
23266;SDS011;11802;53.160;8.214;2022-08-19T01:34:23;100.60;;;41.47;;
23266;SDS011;11802;53.160;8.214;2022-08-19T01:36:49;79.25;;;33.05;;
23266;SDS011;11802;53.160;8.214;2022-08-19T01:39:23;64.45;;;28.35;;
23266;SDS011;11802;53.160;8.214;2022-08-19T01:41:49;53.05;;;23.30;;
23266;SDS011;11802;53.160;8.214;2022-08-19T01:44:16;39.67;;;20.63;;
23266;SDS011;11802;53.160;8.214;2022-08-19T01:46:46;46.17;;;20.60;;
23266;SDS011;11802;53.160;8.214;2022-08-19T01:49:13;36.05;;;18.13;;
23266;SDS011;11802;53.160;8.214;2022-08-19T01:51:39;28.85;;;16.45;;
23266;SDS011;11802;53.160;8.214;2022-08-19T01:54:05;32.67;;;15.00;;
23266;SDS011;11802;53.160;8.214;2022-08-19T01:56:31;32.25;;;14.95;;
23266;SDS011;11802;53.160;8.214;2022-08-19T01:59:01;25.98;;;13.45;;
23266;SDS011;11802;53.160;8.214;2022-08-19T02:01:36;27.77;;;14.13;;
23266;SDS011;11802;53.160;8.214;2022-08-19T02:04:02;24.60;;;13.18;;
23266;SDS011;11802;53.160;8.214;2022-08-19T02:06:28;21.27;;;12.98;;
23266;SDS011;11802;53.160;8.214;2022-08-19T02:08:54;22.40;;;12.65;;
23266;SDS011;11802;53.160;8.214;2022-08-19T02:11:21;22.67;;;13.25;;
23266;SDS011;11802;53.160;8.214;2022-08-19T02:13:51;22.35;;;13.02;;
23266;SDS011;11802;53.160;8.214;2022-08-19T02:16:17;21.08;;;12.80;;
23266;SDS011;11802;53.160;8.214;2022-08-19T02:18:44;27.63;;;14.50;;
23266;SDS011;11802;53.160;8.214;2022-08-19T02:21:10;42.70;;;17.17;;
23266;SDS011;11802;53.160;8.214;2022-08-19T02:23:36;120.13;;;39.08;;
23266;SDS011;11802;53.160;8.214;2022-08-19T02:26:01;316.15;;;98.60;;
23266;SDS011;11802;53.160;8.214;2022-08-19T02:28:27;458.07;;;137.83;;
23266;SDS011;11802;53.160;8.214;2022-08-19T02:30:53;478.53;;;145.33;;
23266;SDS011;11802;53.160;8.214;2022-08-19T02:33:18;440.30;;;142.83;;
23266;SDS011;11802;53.160;8.214;2022-08-19T02:35:44;439.90;;;138.97;;
23266;SDS011;11802;53.160;8.214;2022-08-19T02:38:10;391.65;;;126.32;;
23266;SDS011;11802;53.160;8.214;2022-08-19T02:41:01;344.37;;;107.93;;
23266;SDS011;11802;53.160;8.214;2022-08-19T02:43:30;368.90;;;115.35;;
23266;SDS011;11802;53.160;8.214;2022-08-19T02:45:57;322.65;;;100.85;;
23266;SDS011;11802;53.160;8.214;2022-08-19T02:48:23;278.88;;;85.68;;
23266;SDS011;11802;53.160;8.214;2022-08-19T02:50:51;168.97;;;51.70;;
23266;SDS011;11802;53.160;8.214;2022-08-19T02:53:23;121.10;;;37.83;;
23266;SDS011;11802;53.160;8.214;2022-08-19T02:55:51;63.93;;;23.03;;
23266;SDS011;11802;53.160;8.214;2022-08-19T02:58:17;39.70;;;16.27;;
23266;SDS011;11802;53.160;8.214;2022-08-19T03:00:44;22.13;;;11.40;;
23266;SDS011;11802;53.160;8.214;2022-08-19T03:03:11;18.92;;;9.88;;
23266;SDS011;11802;53.160;8.214;2022-08-19T03:05:37;14.33;;;8.27;;
23266;SDS011;11802;53.160;8.214;2022-08-19T03:08:03;13.03;;;8.37;;
23266;SDS011;11802;53.160;8.214;2022-08-19T03:10:29;12.30;;;8.20;;
23266;SDS011;11802;53.160;8.214;2022-08-19T03:12:54;11.67;;;7.60;;
23266;SDS011;11802;53.160;8.214;2022-08-19T03:15:20;11.90;;;7.50;;
23266;SDS011;11802;53.160;8.214;2022-08-19T03:17:45;14.70;;;8.67;;
23266;SDS011;11802;53.160;8.214;2022-08-19T03:20:11;14.23;;;8.30;;
23266;SDS011;11802;53.160;8.214;2022-08-19T03:22:36;13.30;;;8.50;;
23266;SDS011;11802;53.160;8.214;2022-08-19T03:25:02;14.73;;;8.53;;
23266;SDS011;11802;53.160;8.214;2022-08-19T03:27:28;14.53;;;8.93;;
23266;SDS011;11802;53.160;8.214;2022-08-19T03:29:54;15.70;;;8.27;;
23266;SDS011;11802;53.160;8.214;2022-08-19T03:32:20;15.10;;;9.10;;
23266;SDS011;11802;53.160;8.214;2022-08-19T03:34:47;15.37;;;7.93;;
23266;SDS011;11802;53.160;8.214;2022-08-19T03:37:12;22.97;;;8.93;;
23266;SDS011;11802;53.160;8.214;2022-08-19T03:39:39;13.90;;;8.47;;
23266;SDS011;11802;53.160;8.214;2022-08-19T03:42:05;16.87;;;8.90;;
23266;SDS011;11802;53.160;8.214;2022-08-19T03:44:31;11.87;;;7.23;;
23266;SDS011;11802;53.160;8.214;2022-08-19T03:46:58;13.37;;;8.00;;
23266;SDS011;11802;53.160;8.214;2022-08-19T03:49:28;12.30;;;7.60;;
23266;SDS011;11802;53.160;8.214;2022-08-19T03:51:56;11.47;;;7.17;;
23266;SDS011;11802;53.160;8.214;2022-08-19T03:54:23;12.07;;;7.77;;
23266;SDS011;11802;53.160;8.214;2022-08-19T03:56:50;11.50;;;7.50;;
23266;SDS011;11802;53.160;8.214;2022-08-19T03:59:27;10.57;;;6.90;;
23266;SDS011;11802;53.160;8.214;2022-08-19T04:01:56;11.37;;;7.70;;
23266;SDS011;11802;53.160;8.214;2022-08-19T04:04:23;10.33;;;7.07;;
23266;SDS011;11802;53.160;8.214;2022-08-19T04:06:50;13.57;;;8.00;;
23266;SDS011;11802;53.160;8.214;2022-08-19T04:09:18;11.60;;;7.83;;
23266;SDS011;11802;53.160;8.214;2022-08-19T04:11:49;11.47;;;7.30;;
23266;SDS011;11802;53.160;8.214;2022-08-19T04:14:19;10.50;;;7.20;;
23266;SDS011;11802;53.160;8.214;2022-08-19T04:16:47;12.10;;;7.87;;
23266;SDS011;11802;53.160;8.214;2022-08-19T04:19:14;11.07;;;7.37;;
23266;SDS011;11802;53.160;8.214;2022-08-19T04:21:40;11.53;;;7.50;;
23266;SDS011;11802;53.160;8.214;2022-08-19T04:24:09;11.87;;;7.67;;
23266;SDS011;11802;53.160;8.214;2022-08-19T04:26:36;13.60;;;8.13;;
23266;SDS011;11802;53.160;8.214;2022-08-19T04:29:04;12.47;;;8.07;;
23266;SDS011;11802;53.160;8.214;2022-08-19T04:31:32;13.90;;;7.87;;
23266;SDS011;11802;53.160;8.214;2022-08-19T04:34:02;11.57;;;7.23;;
23266;SDS011;11802;53.160;8.214;2022-08-19T04:36:32;13.93;;;8.03;;
23266;SDS011;11802;53.160;8.214;2022-08-19T04:39:00;11.10;;;7.07;;
23266;SDS011;11802;53.160;8.214;2022-08-19T04:41:28;10.63;;;7.20;;
23266;SDS011;11802;53.160;8.214;2022-08-19T04:44:12;11.10;;;7.50;;
23266;SDS011;11802;53.160;8.214;2022-08-19T04:46:39;12.57;;;7.47;;
23266;SDS011;11802;53.160;8.214;2022-08-19T04:49:05;10.60;;;7.03;;
23266;SDS011;11802;53.160;8.214;2022-08-19T04:51:32;11.23;;;6.55;;
23266;SDS011;11802;53.160;8.214;2022-08-19T04:53:58;10.38;;;7.10;;
23266;SDS011;11802;53.160;8.214;2022-08-19T04:56:26;11.45;;;6.60;;
23266;SDS011;11802;53.160;8.214;2022-08-19T04:58:53;12.40;;;7.10;;
23266;SDS011;11802;53.160;8.214;2022-08-19T05:01:22;13.35;;;7.53;;
23266;SDS011;11802;53.160;8.214;2022-08-19T05:03:49;9.68;;;6.78;;
23266;SDS011;11802;53.160;8.214;2022-08-19T05:06:16;11.07;;;7.18;;
23266;SDS011;11802;53.160;8.214;2022-08-19T05:08:44;11.02;;;6.85;;
23266;SDS011;11802;53.160;8.214;2022-08-19T05:11:12;10.95;;;6.93;;
23266;SDS011;11802;53.160;8.214;2022-08-19T05:13:38;15.30;;;8.82;;
23266;SDS011;11802;53.160;8.214;2022-08-19T05:16:04;16.95;;;9.02;;
23266;SDS011;11802;53.160;8.214;2022-08-19T05:18:30;22.05;;;11.35;;
23266;SDS011;11802;53.160;8.214;2022-08-19T05:21:15;28.05;;;12.30;;
23266;SDS011;11802;53.160;8.214;2022-08-19T05:24:01;34.95;;;14.50;;
23266;SDS011;11802;53.160;8.214;2022-08-19T05:26:27;28.25;;;13.80;;
23266;SDS011;11802;53.160;8.214;2022-08-19T05:28:53;30.17;;;13.75;;
23266;SDS011;11802;53.160;8.214;2022-08-19T05:31:19;35.58;;;15.10;;
23266;SDS011;11802;53.160;8.214;2022-08-19T05:33:45;32.28;;;15.25;;
23266;SDS011;11802;53.160;8.214;2022-08-19T05:36:11;34.90;;;15.68;;
23266;SDS011;11802;53.160;8.214;2022-08-19T05:38:36;35.22;;;16.02;;
23266;SDS011;11802;53.160;8.214;2022-08-19T05:41:06;39.13;;;16.75;;
23266;SDS011;11802;53.160;8.214;2022-08-19T05:43:33;33.72;;;15.02;;
23266;SDS011;11802;53.160;8.214;2022-08-19T05:45:59;40.92;;;16.00;;
23266;SDS011;11802;53.160;8.214;2022-08-19T05:48:24;40.60;;;16.83;;
23266;SDS011;11802;53.160;8.214;2022-08-19T05:50:51;57.38;;;22.98;;
23266;SDS011;11802;53.160;8.214;2022-08-19T05:53:17;80.47;;;28.92;;
23266;SDS011;11802;53.160;8.214;2022-08-19T05:55:43;73.95;;;28.38;;
23266;SDS011;11802;53.160;8.214;2022-08-19T05:58:09;81.03;;;31.02;;
23266;SDS011;11802;53.160;8.214;2022-08-19T06:00:35;70.95;;;25.52;;
23266;SDS011;11802;53.160;8.214;2022-08-19T06:03:02;54.38;;;20.77;;
23266;SDS011;11802;53.160;8.214;2022-08-19T06:05:29;40.83;;;18.77;;
23266;SDS011;11802;53.160;8.214;2022-08-19T06:07:55;47.33;;;19.38;;
23266;SDS011;11802;53.160;8.214;2022-08-19T06:10:21;31.10;;;11.23;;
23266;SDS011;11802;53.160;8.214;2022-08-19T06:12:47;19.48;;;9.13;;
23266;SDS011;11802;53.160;8.214;2022-08-19T06:15:13;16.05;;;8.27;;
23266;SDS011;11802;53.160;8.214;2022-08-19T06:17:39;11.60;;;7.93;;
23266;SDS011;11802;53.160;8.214;2022-08-19T06:20:07;11.23;;;5.90;;
23266;SDS011;11802;53.160;8.214;2022-08-19T06:22:37;10.18;;;6.00;;
23266;SDS011;11802;53.160;8.214;2022-08-19T06:25:04;9.98;;;5.20;;
23266;SDS011;11802;53.160;8.214;2022-08-19T06:27:30;8.60;;;4.70;;
23266;SDS011;11802;53.160;8.214;2022-08-19T06:29:57;8.98;;;4.55;;
23266;SDS011;11802;53.160;8.214;2022-08-19T06:32:22;9.23;;;4.28;;
23266;SDS011;11802;53.160;8.214;2022-08-19T06:34:48;9.52;;;4.28;;
23266;SDS011;11802;53.160;8.214;2022-08-19T06:37:14;7.18;;;4.10;;
23266;SDS011;11802;53.160;8.214;2022-08-19T06:39:41;6.70;;;3.60;;
23266;SDS011;11802;53.160;8.214;2022-08-19T06:42:07;5.95;;;3.38;;
23266;SDS011;11802;53.160;8.214;2022-08-19T06:44:36;4.60;;;2.55;;
23266;SDS011;11802;53.160;8.214;2022-08-19T06:47:04;5.95;;;2.80;;
23266;SDS011;11802;53.160;8.214;2022-08-19T06:49:32;4.78;;;2.00;;
23266;SDS011;11802;53.160;8.214;2022-08-19T06:51:59;2.42;;;1.60;;
23266;SDS011;11802;53.160;8.214;2022-08-19T06:54:25;2.53;;;1.60;;
23266;SDS011;11802;53.160;8.214;2022-08-19T06:56:53;2.13;;;1.73;;
23266;SDS011;11802;53.160;8.214;2022-08-19T06:59:19;3.70;;;2.08;;
23266;SDS011;11802;53.160;8.214;2022-08-19T07:01:48;3.13;;;1.55;;
23266;SDS011;11802;53.160;8.214;2022-08-19T07:04:17;3.65;;;1.70;;
23266;SDS011;11802;53.160;8.214;2022-08-19T07:06:47;2.25;;;1.20;;
23266;SDS011;11802;53.160;8.214;2022-08-19T07:09:14;3.92;;;1.65;;
23266;SDS011;11802;53.160;8.214;2022-08-19T07:11:46;2.70;;;1.45;;
23266;SDS011;11802;53.160;8.214;2022-08-19T07:14:14;3.70;;;1.40;;
23266;SDS011;11802;53.160;8.214;2022-08-19T07:16:43;3.85;;;1.45;;
23266;SDS011;11802;53.160;8.214;2022-08-19T07:19:10;2.63;;;1.60;;
23266;SDS011;11802;53.160;8.214;2022-08-19T07:21:37;3.47;;;1.40;;
23266;SDS011;11802;53.160;8.214;2022-08-19T07:24:02;2.53;;;1.40;;
23266;SDS011;11802;53.160;8.214;2022-08-19T07:26:30;4.45;;;1.60;;
23266;SDS011;11802;53.160;8.214;2022-08-19T07:28:58;5.53;;;1.48;;
23266;SDS011;11802;53.160;8.214;2022-08-19T07:31:26;3.35;;;1.52;;
23266;SDS011;11802;53.160;8.214;2022-08-19T07:33:53;2.30;;;1.45;;
23266;SDS011;11802;53.160;8.214;2022-08-19T07:36:22;2.38;;;1.10;;
23266;SDS011;11802;53.160;8.214;2022-08-19T07:38:50;2.55;;;1.20;;
23266;SDS011;11802;53.160;8.214;2022-08-19T07:41:18;2.78;;;1.23;;
23266;SDS011;11802;53.160;8.214;2022-08-19T07:43:46;3.03;;;1.38;;
23266;SDS011;11802;53.160;8.214;2022-08-19T07:46:13;3.58;;;1.25;;
23266;SDS011;11802;53.160;8.214;2022-08-19T07:48:43;2.72;;;1.23;;
23266;SDS011;11802;53.160;8.214;2022-08-19T07:51:12;2.80;;;1.40;;
23266;SDS011;11802;53.160;8.214;2022-08-19T07:53:40;2.17;;;1.23;;
23266;SDS011;11802;53.160;8.214;2022-08-19T07:56:06;3.03;;;1.23;;
23266;SDS011;11802;53.160;8.214;2022-08-19T07:58:33;3.88;;;1.10;;
23266;SDS011;11802;53.160;8.214;2022-08-19T08:01:02;2.08;;;1.10;;
23266;SDS011;11802;53.160;8.214;2022-08-19T08:03:29;2.42;;;1.42;;
23266;SDS011;11802;53.160;8.214;2022-08-19T08:06:30;5.20;;;1.30;;
23266;SDS011;11802;53.160;8.214;2022-08-19T08:09:15;5.60;;;1.38;;
23266;SDS011;11802;53.160;8.214;2022-08-19T08:11:52;4.07;;;1.42;;
23266;SDS011;11802;53.160;8.214;2022-08-19T08:14:53;3.00;;;1.58;;
23266;SDS011;11802;53.160;8.214;2022-08-19T08:17:13;5.50;;;1.55;;
23266;SDS011;11802;53.160;8.214;2022-08-19T08:19:40;5.38;;;1.33;;
23266;SDS011;11802;53.160;8.214;2022-08-19T08:22:06;2.70;;;1.20;;
23266;SDS011;11802;53.160;8.214;2022-08-19T08:24:32;3.47;;;1.27;;
23266;SDS011;11802;53.160;8.214;2022-08-19T08:27:00;2.70;;;1.13;;
23266;SDS011;11802;53.160;8.214;2022-08-19T08:29:29;2.17;;;1.17;;
23266;SDS011;11802;53.160;8.214;2022-08-19T08:31:55;3.83;;;1.30;;
23266;SDS011;11802;53.160;8.214;2022-08-19T08:34:21;2.38;;;1.60;;
23266;SDS011;11802;53.160;8.214;2022-08-19T08:36:47;4.18;;;1.58;;
23266;SDS011;11802;53.160;8.214;2022-08-19T08:39:13;3.33;;;1.50;;
23266;SDS011;11802;53.160;8.214;2022-08-19T08:41:50;2.53;;;1.83;;
23266;SDS011;11802;53.160;8.214;2022-08-19T08:44:22;3.38;;;1.90;;
23266;SDS011;11802;53.160;8.214;2022-08-19T08:46:58;2.17;;;1.40;;
23266;SDS011;11802;53.160;8.214;2022-08-19T08:49:36;4.93;;;1.45;;
23266;SDS011;11802;53.160;8.214;2022-08-19T08:52:26;3.38;;;1.50;;
23266;SDS011;11802;53.160;8.214;2022-08-19T08:54:54;2.47;;;1.50;;
23266;SDS011;11802;53.160;8.214;2022-08-19T08:57:31;5.03;;;1.63;;
23266;SDS011;11802;53.160;8.214;2022-08-19T09:00:04;4.90;;;1.45;;
23266;SDS011;11802;53.160;8.214;2022-08-19T09:02:32;2.78;;;1.50;;
23266;SDS011;11802;53.160;8.214;2022-08-19T09:04:58;3.05;;;1.60;;
23266;SDS011;11802;53.160;8.214;2022-08-19T09:09:52;4.85;;;1.80;;
23266;SDS011;11802;53.160;8.214;2022-08-19T09:12:50;4.10;;;1.90;;
23266;SDS011;11802;53.160;8.214;2022-08-19T09:15:29;3.75;;;1.58;;
23266;SDS011;11802;53.160;8.214;2022-08-19T09:18:05;3.42;;;1.50;;
23266;SDS011;11802;53.160;8.214;2022-08-19T09:20:33;3.58;;;1.98;;
23266;SDS011;11802;53.160;8.214;2022-08-19T09:22:58;3.53;;;1.80;;
23266;SDS011;11802;53.160;8.214;2022-08-19T09:25:24;3.40;;;1.70;;
23266;SDS011;11802;53.160;8.214;2022-08-19T09:27:51;3.15;;;1.67;;
23266;SDS011;11802;53.160;8.214;2022-08-19T09:30:25;3.63;;;1.90;;
23266;SDS011;11802;53.160;8.214;2022-08-19T09:32:53;4.05;;;1.50;;
23266;SDS011;11802;53.160;8.214;2022-08-19T09:35:21;4.45;;;1.70;;
23266;SDS011;11802;53.160;8.214;2022-08-19T09:37:48;5.70;;;1.90;;
23266;SDS011;11802;53.160;8.214;2022-08-19T09:40:14;4.05;;;2.00;;
23266;SDS011;11802;53.160;8.214;2022-08-19T09:42:41;3.28;;;1.80;;
23266;SDS011;11802;53.160;8.214;2022-08-19T09:45:08;2.42;;;1.70;;
23266;SDS011;11802;53.160;8.214;2022-08-19T09:47:34;3.25;;;1.75;;
23266;SDS011;11802;53.160;8.214;2022-08-19T09:50:03;3.63;;;1.80;;
23266;SDS011;11802;53.160;8.214;2022-08-19T09:52:30;3.00;;;1.55;;
23266;SDS011;11802;53.160;8.214;2022-08-19T09:54:56;2.97;;;1.63;;
23266;SDS011;11802;53.160;8.214;2022-08-19T09:57:21;2.92;;;1.75;;
23266;SDS011;11802;53.160;8.214;2022-08-19T09:59:47;1.58;;;1.30;;
23266;SDS011;11802;53.160;8.214;2022-08-19T10:02:13;2.33;;;1.40;;
23266;SDS011;11802;53.160;8.214;2022-08-19T10:04:38;2.72;;;1.40;;
23266;SDS011;11802;53.160;8.214;2022-08-19T10:07:22;2.55;;;1.65;;
23266;SDS011;11802;53.160;8.214;2022-08-19T10:09:48;4.15;;;1.27;;
23266;SDS011;11802;53.160;8.214;2022-08-19T10:12:13;2.92;;;1.42;;
23266;SDS011;11802;53.160;8.214;2022-08-19T10:14:40;3.53;;;1.40;;
23266;SDS011;11802;53.160;8.214;2022-08-19T10:17:05;3.58;;;1.20;;
23266;SDS011;11802;53.160;8.214;2022-08-19T10:19:31;1.80;;;1.20;;
23266;SDS011;11802;53.160;8.214;2022-08-19T10:22:02;2.90;;;1.40;;
23266;SDS011;11802;53.160;8.214;2022-08-19T10:24:29;1.95;;;0.95;;
23266;SDS011;11802;53.160;8.214;2022-08-19T10:26:55;2.65;;;1.50;;
23266;SDS011;11802;53.160;8.214;2022-08-19T10:29:21;2.22;;;1.70;;
23266;SDS011;11802;53.160;8.214;2022-08-19T10:31:47;3.35;;;1.75;;
23266;SDS011;11802;53.160;8.214;2022-08-19T10:34:13;1.65;;;1.10;;
23266;SDS011;11802;53.160;8.214;2022-08-19T10:36:38;2.05;;;1.40;;
23266;SDS011;11802;53.160;8.214;2022-08-19T10:39:08;3.33;;;1.70;;
23266;SDS011;11802;53.160;8.214;2022-08-19T10:41:36;3.03;;;1.60;;
23266;SDS011;11802;53.160;8.214;2022-08-19T10:44:05;2.38;;;1.38;;
23266;SDS011;11802;53.160;8.214;2022-08-19T10:46:33;3.85;;;1.60;;
23266;SDS011;11802;53.160;8.214;2022-08-19T10:49:02;2.40;;;1.35;;
23266;SDS011;11802;53.160;8.214;2022-08-19T10:51:29;3.28;;;1.40;;
23266;SDS011;11802;53.160;8.214;2022-08-19T10:54:14;3.75;;;1.30;;
23266;SDS011;11802;53.160;8.214;2022-08-19T10:56:44;2.70;;;1.60;;
23266;SDS011;11802;53.160;8.214;2022-08-19T10:59:23;2.53;;;1.40;;
23266;SDS011;11802;53.160;8.214;2022-08-19T11:01:54;4.45;;;1.33;;
23266;SDS011;11802;53.160;8.214;2022-08-19T11:04:24;3.00;;;1.30;;
23266;SDS011;11802;53.160;8.214;2022-08-19T11:06:49;2.80;;;1.50;;
23266;SDS011;11802;53.160;8.214;2022-08-19T11:09:16;3.72;;;1.60;;
23266;SDS011;11802;53.160;8.214;2022-08-19T11:11:44;2.47;;;1.63;;
23266;SDS011;11802;53.160;8.214;2022-08-19T11:14:14;2.78;;;1.30;;
23266;SDS011;11802;53.160;8.214;2022-08-19T11:16:43;2.70;;;1.52;;
23266;SDS011;11802;53.160;8.214;2022-08-19T11:19:09;1.92;;;1.13;;
23266;SDS011;11802;53.160;8.214;2022-08-19T11:21:38;2.92;;;1.50;;
23266;SDS011;11802;53.160;8.214;2022-08-19T11:24:08;2.80;;;1.70;;
23266;SDS011;11802;53.160;8.214;2022-08-19T11:26:36;6.50;;;1.25;;
23266;SDS011;11802;53.160;8.214;2022-08-19T11:29:04;2.00;;;1.40;;
23266;SDS011;11802;53.160;8.214;2022-08-19T11:31:33;4.68;;;1.83;;
23266;SDS011;11802;53.160;8.214;2022-08-19T11:34:02;2.78;;;1.40;;
23266;SDS011;11802;53.160;8.214;2022-08-19T11:36:29;2.83;;;1.40;;
23266;SDS011;11802;53.160;8.214;2022-08-19T11:38:56;2.38;;;1.50;;
23266;SDS011;11802;53.160;8.214;2022-08-19T11:41:22;5.45;;;1.58;;
23266;SDS011;11802;53.160;8.214;2022-08-19T11:43:48;2.72;;;1.25;;
23266;SDS011;11802;53.160;8.214;2022-08-19T11:46:15;3.53;;;1.40;;
23266;SDS011;11802;53.160;8.214;2022-08-19T11:48:41;2.95;;;1.60;;
23266;SDS011;11802;53.160;8.214;2022-08-19T11:51:08;2.35;;;1.42;;
23266;SDS011;11802;53.160;8.214;2022-08-19T11:53:35;2.95;;;1.40;;
23266;SDS011;11802;53.160;8.214;2022-08-19T11:56:02;2.63;;;1.33;;
23266;SDS011;11802;53.160;8.214;2022-08-19T11:58:29;3.22;;;1.80;;
23266;SDS011;11802;53.160;8.214;2022-08-19T12:00:55;4.30;;;1.70;;
23266;SDS011;11802;53.160;8.214;2022-08-19T12:03:21;2.08;;;1.40;;
23266;SDS011;11802;53.160;8.214;2022-08-19T12:05:47;1.92;;;1.35;;
23266;SDS011;11802;53.160;8.214;2022-08-19T12:08:12;1.58;;;1.15;;
23266;SDS011;11802;53.160;8.214;2022-08-19T12:10:38;2.33;;;1.20;;
23266;SDS011;11802;53.160;8.214;2022-08-19T12:13:07;2.58;;;1.38;;
23266;SDS011;11802;53.160;8.214;2022-08-19T12:15:36;2.33;;;1.30;;
23266;SDS011;11802;53.160;8.214;2022-08-19T12:18:03;2.75;;;1.42;;
23266;SDS011;11802;53.160;8.214;2022-08-19T12:20:29;2.90;;;1.60;;
23266;SDS011;11802;53.160;8.214;2022-08-19T12:22:55;2.53;;;1.40;;
23266;SDS011;11802;53.160;8.214;2022-08-19T12:25:20;1.70;;;1.30;;
23266;SDS011;11802;53.160;8.214;2022-08-19T12:27:46;2.83;;;1.33;;
23266;SDS011;11802;53.160;8.214;2022-08-19T12:30:12;2.92;;;1.40;;
23266;SDS011;11802;53.160;8.214;2022-08-19T12:32:38;1.95;;;1.38;;
23266;SDS011;11802;53.160;8.214;2022-08-19T12:35:05;2.28;;;1.40;;
23266;SDS011;11802;53.160;8.214;2022-08-19T12:37:31;2.22;;;1.55;;
23266;SDS011;11802;53.160;8.214;2022-08-19T12:39:57;3.67;;;1.83;;
23266;SDS011;11802;53.160;8.214;2022-08-19T12:42:23;3.88;;;1.70;;
23266;SDS011;11802;53.160;8.214;2022-08-19T12:44:49;4.00;;;1.50;;
23266;SDS011;11802;53.160;8.214;2022-08-19T12:47:16;2.55;;;1.50;;
23266;SDS011;11802;53.160;8.214;2022-08-19T12:49:42;2.13;;;1.30;;
23266;SDS011;11802;53.160;8.214;2022-08-19T12:52:09;3.00;;;1.65;;
23266;SDS011;11802;53.160;8.214;2022-08-19T12:54:35;3.42;;;1.80;;
23266;SDS011;11802;53.160;8.214;2022-08-19T12:57:08;2.28;;;1.70;;
23266;SDS011;11802;53.160;8.214;2022-08-19T12:59:35;2.30;;;1.83;;
23266;SDS011;11802;53.160;8.214;2022-08-19T13:02:02;2.80;;;1.50;;
23266;SDS011;11802;53.160;8.214;2022-08-19T13:04:30;2.03;;;1.38;;
23266;SDS011;11802;53.160;8.214;2022-08-19T13:06:55;3.38;;;1.67;;
23266;SDS011;11802;53.160;8.214;2022-08-19T13:09:23;2.60;;;1.80;;
23266;SDS011;11802;53.160;8.214;2022-08-19T13:11:48;6.47;;;1.80;;
23266;SDS011;11802;53.160;8.214;2022-08-19T13:14:14;2.00;;;1.50;;
23266;SDS011;11802;53.160;8.214;2022-08-19T13:16:39;3.70;;;1.88;;
23266;SDS011;11802;53.160;8.214;2022-08-19T13:19:06;2.55;;;1.65;;
23266;SDS011;11802;53.160;8.214;2022-08-19T13:21:32;3.13;;;2.08;;
23266;SDS011;11802;53.160;8.214;2022-08-19T13:23:58;2.30;;;1.70;;
23266;SDS011;11802;53.160;8.214;2022-08-19T13:26:23;2.67;;;1.52;;
23266;SDS011;11802;53.160;8.214;2022-08-19T13:28:49;4.22;;;1.85;;
23266;SDS011;11802;53.160;8.214;2022-08-19T13:31:34;1.70;;;1.55;;
23266;SDS011;11802;53.160;8.214;2022-08-19T13:34:25;2.35;;;1.67;;
23266;SDS011;11802;53.160;8.214;2022-08-19T13:36:53;3.35;;;1.70;;
23266;SDS011;11802;53.160;8.214;2022-08-19T13:39:18;1.88;;;1.50;;
23266;SDS011;11802;53.160;8.214;2022-08-19T13:41:45;2.33;;;1.70;;
23266;SDS011;11802;53.160;8.214;2022-08-19T13:44:18;2.95;;;1.55;;
23266;SDS011;11802;53.160;8.214;2022-08-19T13:46:44;2.17;;;1.50;;
23266;SDS011;11802;53.160;8.214;2022-08-19T13:49:11;2.88;;;1.60;;
23266;SDS011;11802;53.160;8.214;2022-08-19T13:51:38;4.00;;;1.73;;
23266;SDS011;11802;53.160;8.214;2022-08-19T13:54:05;2.55;;;1.75;;
23266;SDS011;11802;53.160;8.214;2022-08-19T13:56:31;2.35;;;1.55;;
23266;SDS011;11802;53.160;8.214;2022-08-19T13:58:57;3.47;;;1.48;;
23266;SDS011;11802;53.160;8.214;2022-08-19T14:01:23;2.35;;;1.73;;
23266;SDS011;11802;53.160;8.214;2022-08-19T14:03:49;2.05;;;1.60;;
23266;SDS011;11802;53.160;8.214;2022-08-19T14:06:15;2.05;;;1.65;;
23266;SDS011;11802;53.160;8.214;2022-08-19T14:08:41;1.77;;;1.55;;
23266;SDS011;11802;53.160;8.214;2022-08-19T14:11:08;4.95;;;1.70;;
23266;SDS011;11802;53.160;8.214;2022-08-19T14:13:34;2.50;;;1.73;;
23266;SDS011;11802;53.160;8.214;2022-08-19T14:16:00;2.55;;;2.00;;
23266;SDS011;11802;53.160;8.214;2022-08-19T14:18:25;3.72;;;2.00;;
23266;SDS011;11802;53.160;8.214;2022-08-19T14:20:51;4.25;;;1.90;;
23266;SDS011;11802;53.160;8.214;2022-08-19T14:23:17;2.63;;;1.95;;
23266;SDS011;11802;53.160;8.214;2022-08-19T14:25:43;4.00;;;2.00;;
23266;SDS011;11802;53.160;8.214;2022-08-19T14:28:09;3.70;;;2.38;;
23266;SDS011;11802;53.160;8.214;2022-08-19T14:30:35;3.70;;;2.28;;
23266;SDS011;11802;53.160;8.214;2022-08-19T14:33:03;3.25;;;2.00;;
23266;SDS011;11802;53.160;8.214;2022-08-19T14:35:30;2.28;;;1.80;;
23266;SDS011;11802;53.160;8.214;2022-08-19T14:37:59;4.28;;;2.00;;
23266;SDS011;11802;53.160;8.214;2022-08-19T14:40:26;3.45;;;2.10;;
23266;SDS011;11802;53.160;8.214;2022-08-19T14:42:53;2.47;;;2.00;;